메인 페이지
METAR-TAF:

METAR-TAF

공항 :

블랜타이어, 말라위

위도: 15-41S, 경도: 034-58E, 고도: 766m

METAR: 누락

시각: 16:22 (14:22 UTC)

예보

예보는 28 시간 52분 전, 09:30시(UTC)에 발표되었습니다.
예보 대상 시간: 13일 12시부터 14일 18시까지 (UTC)
서남서6kt
시정: 8000m
고도 2500ft 상공 구름 조금, 적란운.
고도 3000ft 상공 구름 많음
고도 8000ft 상공 구름 많음
뇌우, 약한비
전환 중
13일 18시부터 13일 20시까지 (UTC)
남남동8kt
시정 10km 이상
고도 2500ft 상공 구름 조금, 적란운.
고도 7000ft 상공 구름 보통
전환 중
14일 04시부터 14일 06시까지 (UTC)
남남동6kt
시정 10km 이상
고도 800ft 상공 구름 조금
고도 2500ft 상공 구름 보통
고도 7000ft 상공 구름 많음
확률 30% :
일시적
14일 08시부터 14일 12시까지 (UTC)
시정: 9000m
고도 2500ft 상공 구름 많음
고도 7000ft 상공 구름 많음
약한비

TAF: FWCL 130930Z 1312/1418 24006KT 8000 -TSRA FEW025CB BKN030 BKN080 BECMG 1318/1320 15008KT 9999 FEW025CB SCT070 BECMG 1404/1406 16006KT 9999 FEW008 SCT025 BKN070 PROB30 TEMPO 1408/1412 9000 -RA BKN025 BKN070

4,000개 이상의 공항 관측 자료 및 예보 (METAR 및 TAF 보고).

지도상에서 검색 가능한 기상관측소가 노란 점과 빨간 점으로 표시되어 있습니다.

기상관측소 명을 보려면 표시 위로 마우스를 이동하세요.

날씨 관측과 예보를 보려면 클릭하세요.

지도 변경 : 확대하려면 엑스 표시가 있는 녹색 버튼, 축소하려면 빼기 표시가 있는 녹색 버튼, 다음 페이지의 지도를 보려면 녹색 화살표를 클릭하세요.


METAR-TAF: